createdAt,value
2022-12-23T00:01:08.993Z,9.70
2022-12-23T00:05:11.999Z,9.70
2022-12-23T00:09:14.833Z,9.60
2022-12-23T00:13:37.326Z,9.60
2022-12-23T00:17:44.449Z,9.60
2022-12-23T00:21:48.302Z,9.60
2022-12-23T00:25:51.267Z,9.60
2022-12-23T00:29:55.882Z,9.60
2022-12-23T00:33:58.728Z,9.60
2022-12-23T00:38:01.519Z,9.60
2022-12-23T00:42:21.953Z,9.70
2022-12-23T00:46:26.190Z,9.70
2022-12-23T00:50:29.777Z,9.60
2022-12-23T00:54:32.784Z,9.70
2022-12-23T00:58:35.567Z,9.70
2022-12-23T01:02:57.960Z,9.70
2022-12-23T01:07:01.361Z,9.70
2022-12-23T01:11:04.554Z,9.70
2022-12-23T01:15:08.666Z,9.70
2022-12-23T01:19:12.960Z,9.70
2022-12-23T01:23:15.715Z,9.80
2022-12-23T01:27:18.460Z,9.80
2022-12-23T01:31:21.235Z,9.80
2022-12-23T01:35:25.351Z,9.80
2022-12-23T01:39:28.117Z,9.90
2022-12-23T01:43:46.974Z,9.90
2022-12-23T01:47:53.470Z,9.90
2022-12-23T01:51:57.766Z,9.90
2022-12-23T01:56:03.879Z,9.80
2022-12-23T02:00:25.730Z,9.80
2022-12-23T02:04:28.474Z,9.80
2022-12-23T02:09:01.494Z,9.80
2022-12-23T02:13:09.723Z,9.70
2022-12-23T02:17:24.693Z,9.80
2022-12-23T02:21:51.272Z,9.80
2022-12-23T02:26:23.430Z,9.80
2022-12-23T02:30:41.699Z,9.80
2022-12-23T02:34:51.987Z,9.70
2022-12-23T02:39:02.428Z,9.70
2022-12-23T02:43:09.819Z,9.70
2022-12-23T02:47:20.742Z,9.70
2022-12-23T02:51:27.967Z,9.70
2022-12-23T02:55:34.767Z,9.60
2022-12-23T02:59:42.030Z,9.60
2022-12-23T03:03:48.355Z,9.60
2022-12-23T03:07:53.591Z,9.50
2022-12-23T03:12:04.959Z,9.50
2022-12-23T03:16:14.317Z,9.50
2022-12-23T03:20:27.713Z,9.50
2022-12-23T03:24:37.638Z,9.50
2022-12-23T03:28:46.771Z,9.50
2022-12-23T03:32:55.839Z,9.50
2022-12-23T03:37:04.314Z,9.50
2022-12-23T03:41:11.811Z,9.50
2022-12-23T03:45:38.230Z,9.50
2022-12-23T03:49:48.993Z,9.50
2022-12-23T03:53:57.952Z,9.50
2022-12-23T03:58:06.979Z,9.50
2022-12-23T04:02:15.860Z,9.60
2022-12-23T04:06:20.767Z,9.50
2022-12-23T04:10:25.958Z,9.60
2022-12-23T04:14:28.690Z,9.60
2022-12-23T04:18:31.519Z,9.60
2022-12-23T04:22:34.224Z,9.60
2022-12-23T04:26:38.335Z,9.60
2022-12-23T04:30:41.137Z,9.60
2022-12-23T04:34:44.052Z,9.60
2022-12-23T04:38:46.916Z,9.60
2022-12-23T04:42:51.116Z,9.60
2022-12-23T04:46:53.953Z,9.60
2022-12-23T04:50:56.788Z,9.60
2022-12-23T04:54:59.600Z,9.60
2022-12-23T04:59:04.249Z,9.60
2022-12-23T05:03:07.106Z,9.60
2022-12-23T05:07:10.055Z,9.60
2022-12-23T05:11:12.837Z,9.60
2022-12-23T05:15:16.966Z,9.60
2022-12-23T05:19:19.835Z,9.60
2022-12-23T05:23:22.604Z,9.60
2022-12-23T05:27:25.351Z,9.60
2022-12-23T05:31:29.507Z,9.60
2022-12-23T05:35:32.297Z,9.60
2022-12-23T05:39:35.036Z,9.60
2022-12-23T05:43:37.808Z,9.60
2022-12-23T05:47:41.866Z,9.60
2022-12-23T05:51:44.611Z,9.60
2022-12-23T05:55:47.920Z,9.60
2022-12-23T05:59:50.834Z,9.60
2022-12-23T06:03:55.165Z,9.60
2022-12-23T06:07:57.978Z,9.60
2022-12-23T06:12:00.726Z,9.60
2022-12-23T06:16:03.532Z,9.60
2022-12-23T06:20:11.216Z,9.60
2022-12-23T06:24:19.032Z,9.60
2022-12-23T06:28:21.773Z,9.60
2022-12-23T06:32:24.505Z,9.60
2022-12-23T06:36:28.637Z,9.60
2022-12-23T06:40:31.475Z,9.60
2022-12-23T06:44:34.276Z,9.50
2022-12-23T06:48:37.038Z,9.50
2022-12-23T06:52:41.144Z,9.50
2022-12-23T06:56:44.155Z,9.50
2022-12-23T07:00:46.955Z,9.50
2022-12-23T07:04:50.547Z,9.50
2022-12-23T07:08:54.640Z,9.40
2022-12-23T07:12:57.369Z,9.40
2022-12-23T07:17:00.182Z,9.40
2022-12-23T07:21:04.338Z,9.50
2022-12-23T07:25:09.788Z,9.40
2022-12-23T07:29:12.520Z,9.40
2022-12-23T07:33:15.385Z,9.40
2022-12-23T07:37:18.145Z,9.40
2022-12-23T07:41:22.221Z,9.40
2022-12-23T07:45:25.156Z,9.40
2022-12-23T07:49:27.961Z,9.40
2022-12-23T07:53:33.567Z,9.40
2022-12-23T07:57:38.441Z,9.40
2022-12-23T08:01:41.342Z,9.40
2022-12-23T08:05:44.223Z,9.50
2022-12-23T08:09:46.968Z,9.50
2022-12-23T08:13:52.803Z,9.50
2022-12-23T08:17:56.168Z,9.50
2022-12-23T08:21:58.899Z,9.50
2022-12-23T08:26:03.152Z,9.50
2022-12-23T08:30:11.097Z,9.50
2022-12-23T08:34:14.348Z,9.50
2022-12-23T08:38:17.098Z,9.40
2022-12-23T08:42:19.834Z,9.40
2022-12-23T08:46:24.729Z,9.40
2022-12-23T08:50:27.470Z,9.40
2022-12-23T08:54:30.321Z,9.40
2022-12-23T08:58:36.630Z,9.40
2022-12-23T09:02:40.964Z,9.40
2022-12-23T09:06:44.418Z,9.40
2022-12-23T09:10:47.161Z,9.40
2022-12-23T09:14:49.918Z,9.40
2022-12-23T09:18:54.115Z,9.30
2022-12-23T09:22:56.858Z,9.30
2022-12-23T09:26:59.676Z,9.30
2022-12-23T09:31:08.552Z,9.30
2022-12-23T09:35:12.703Z,9.30
2022-12-23T09:39:16.571Z,9.30
2022-12-23T09:43:29.600Z,9.30
2022-12-23T09:47:33.786Z,9.30
2022-12-23T09:51:38.266Z,9.30
2022-12-23T09:55:47.963Z,9.30
2022-12-23T10:00:03.043Z,9.30
2022-12-23T10:04:34.795Z,9.30
2022-12-23T10:08:42.162Z,9.30
2022-12-23T10:12:48.062Z,9.30
2022-12-23T10:16:53.754Z,9.30
2022-12-23T10:21:04.126Z,9.30
2022-12-23T10:25:15.368Z,9.30
2022-12-23T10:29:20.309Z,9.30
2022-12-23T10:33:25.087Z,9.30
2022-12-23T10:37:35.447Z,9.30
2022-12-23T10:41:51.056Z,9.30
2022-12-23T10:46:00.571Z,9.30
2022-12-23T10:50:17.463Z,9.30
2022-12-23T10:54:24.871Z,9.30
2022-12-23T10:58:29.069Z,9.30
2022-12-23T11:02:50.662Z,9.40
2022-12-23T11:07:18.220Z,9.40
2022-12-23T11:11:17.939Z,9.30
2022-12-23T11:15:32.500Z,9.40
2022-12-23T11:19:35.247Z,9.40
2022-12-23T11:23:37.981Z,9.40
2022-12-23T11:27:44.702Z,9.40
2022-12-23T11:31:49.098Z,9.40
2022-12-23T11:36:02.656Z,9.40
2022-12-23T11:40:06.954Z,9.40
2022-12-23T11:44:21.716Z,9.40
2022-12-23T11:48:30.335Z,9.50
2022-12-23T11:52:34.146Z,9.50
2022-12-23T11:56:39.540Z,9.50
2022-12-23T12:00:55.542Z,9.50
2022-12-23T12:05:03.187Z,9.60
2022-12-23T12:09:07.301Z,9.60
2022-12-23T12:13:24.769Z,9.60
2022-12-23T12:17:33.530Z,9.70
2022-12-23T12:21:39.821Z,9.70
2022-12-23T12:25:47.032Z,9.70
2022-12-23T12:29:56.678Z,9.80
2022-12-23T12:34:05.086Z,9.80
2022-12-23T12:38:17.274Z,9.90
2022-12-23T12:42:26.625Z,9.90
2022-12-23T12:46:33.439Z,10.00
2022-12-23T12:50:42.594Z,9.90
2022-12-23T12:54:53.433Z,10.00
2022-12-23T12:58:56.259Z,9.90
2022-12-23T13:03:21.185Z,9.90
2022-12-23T13:07:29.582Z,9.90
2022-12-23T13:11:44.897Z,9.80
2022-12-23T13:15:52.415Z,9.80
2022-12-23T13:20:02.005Z,9.70
2022-12-23T13:24:16.402Z,9.70
2022-12-23T13:28:33.320Z,9.70
2022-12-23T13:32:57.874Z,9.70
2022-12-23T13:37:12.346Z,9.70
2022-12-23T13:41:23.585Z,9.60
2022-12-23T13:45:33.855Z,9.60
2022-12-23T13:49:51.761Z,9.60
2022-12-23T13:54:04.386Z,9.60
2022-12-23T13:58:15.104Z,9.50
2022-12-23T14:02:49.909Z,9.50
2022-12-23T14:06:55.794Z,9.50
2022-12-23T14:11:00.962Z,9.50
2022-12-23T14:15:48.805Z,9.50
2022-12-23T14:20:06.632Z,9.50
2022-12-23T14:24:49.252Z,9.50
2022-12-23T14:29:03.863Z,9.50
2022-12-23T14:33:22.900Z,9.50
2022-12-23T14:37:39.202Z,9.50
2022-12-23T14:41:51.540Z,9.50
2022-12-23T14:45:55.237Z,9.40
2022-12-23T14:50:18.317Z,9.40
2022-12-23T14:54:39.143Z,9.40
2022-12-23T14:59:12.224Z,9.40
2022-12-23T15:03:15.345Z,9.40
2022-12-23T15:07:23.661Z,9.40
2022-12-23T15:11:31.023Z,9.40
2022-12-23T15:15:34.449Z,9.40
2022-12-23T15:19:46.595Z,9.40
2022-12-23T15:23:50.310Z,9.40
2022-12-23T15:28:01.278Z,9.30
2022-12-23T15:32:05.198Z,9.30
2022-12-23T15:36:10.755Z,9.30
2022-12-23T15:40:25.681Z,9.20
2022-12-23T15:44:36.307Z,9.20
2022-12-23T15:48:40.394Z,9.20
2022-12-23T15:52:45.297Z,9.20
2022-12-23T15:56:51.201Z,9.10
2022-12-23T16:00:57.440Z,9.10
2022-12-23T16:05:02.174Z,9.10
2022-12-23T16:09:07.641Z,9.10
2022-12-23T16:13:19.045Z,9.10
2022-12-23T16:17:32.976Z,9.10
2022-12-23T16:21:37.424Z,9.00
2022-12-23T16:25:45.422Z,9.00
2022-12-23T16:29:51.235Z,9.00
2022-12-23T16:33:57.990Z,9.00
2022-12-23T16:38:11.920Z,9.00
2022-12-23T16:42:14.677Z,9.00
2022-12-23T16:46:18.951Z,9.00
2022-12-23T16:50:23.226Z,9.00
2022-12-23T16:54:25.968Z,8.90
2022-12-23T16:58:28.730Z,8.90
2022-12-23T17:02:34.307Z,8.90
2022-12-23T17:06:40.614Z,8.90
2022-12-23T17:10:45.392Z,8.90
2022-12-23T17:14:48.142Z,8.90
2022-12-23T17:18:52.385Z,8.90
2022-12-23T17:23:00.308Z,8.90
2022-12-23T17:27:03.136Z,9.00
2022-12-23T17:31:13.779Z,8.90
2022-12-23T17:35:17.846Z,9.00
2022-12-23T17:39:22.756Z,9.10
2022-12-23T17:43:26.205Z,9.20
2022-12-23T17:47:28.951Z,9.30
2022-12-23T17:51:31.777Z,9.40
2022-12-23T17:55:35.856Z,9.40
2022-12-23T17:59:38.678Z,9.50
2022-12-23T18:03:41.424Z,9.50
2022-12-23T18:07:44.204Z,9.60
2022-12-23T18:11:48.446Z,9.80
2022-12-23T18:15:51.428Z,9.90
2022-12-23T18:19:54.761Z,9.90
2022-12-23T18:23:59.920Z,9.90
2022-12-23T18:28:05.142Z,10.00
2022-12-23T18:32:08.087Z,10.10
2022-12-23T18:36:21.309Z,10.20
2022-12-23T18:40:29.326Z,10.30
2022-12-23T18:44:36.747Z,10.40
2022-12-23T18:48:39.686Z,10.40
2022-12-23T18:52:42.543Z,10.50
2022-12-23T18:56:45.398Z,10.50
2022-12-23T19:00:50.596Z,10.50
2022-12-23T19:04:53.395Z,10.50
2022-12-23T19:08:56.147Z,10.50
2022-12-23T19:12:58.920Z,10.60
2022-12-23T19:17:03.213Z,10.60
2022-12-23T19:21:06.484Z,10.60
2022-12-23T19:25:11.167Z,10.70
2022-12-23T19:29:13.980Z,10.70
2022-12-23T19:33:18.272Z,10.70
2022-12-23T19:37:21.346Z,10.80
2022-12-23T19:41:24.184Z,10.80
2022-12-23T19:45:26.917Z,10.80
2022-12-23T19:49:31.390Z,10.70
2022-12-23T19:53:34.794Z,10.70
2022-12-23T19:57:37.580Z,10.70
2022-12-23T20:01:40.409Z,10.70
2022-12-23T20:05:49.504Z,10.60
2022-12-23T20:09:52.401Z,10.60
2022-12-23T20:13:56.223Z,10.60
2022-12-23T20:18:01.234Z,10.60
2022-12-23T20:22:05.308Z,10.60
2022-12-23T20:26:08.124Z,10.60
2022-12-23T20:30:14.299Z,10.60
2022-12-23T20:34:18.088Z,10.70
2022-12-23T20:38:22.870Z,10.70
2022-12-23T20:42:27.140Z,10.60
2022-12-23T20:46:30.000Z,10.60
2022-12-23T20:50:32.807Z,10.60
2022-12-23T20:54:36.891Z,10.60
2022-12-23T20:58:57.676Z,10.60
2022-12-23T21:03:05.281Z,10.60
2022-12-23T21:07:11.313Z,10.60
2022-12-23T21:11:16.020Z,10.60
2022-12-23T21:15:18.845Z,10.50
2022-12-23T21:19:23.423Z,10.50
2022-12-23T21:23:26.250Z,10.40
2022-12-23T21:27:30.340Z,10.40
2022-12-23T21:31:34.743Z,10.30
2022-12-23T21:35:37.625Z,10.30
2022-12-23T21:39:40.410Z,10.30
2022-12-23T21:43:44.585Z,10.30
2022-12-23T21:47:47.427Z,10.30
2022-12-23T21:51:50.328Z,10.30
2022-12-23T21:55:53.045Z,10.30
2022-12-23T21:59:57.143Z,10.30
2022-12-23T22:04:00.470Z,10.30
2022-12-23T22:08:03.239Z,10.30
2022-12-23T22:12:06.289Z,10.40
2022-12-23T22:16:12.005Z,10.30
2022-12-23T22:20:14.845Z,10.30
2022-12-23T22:24:17.586Z,10.30
2022-12-23T22:28:20.369Z,10.30
2022-12-23T22:32:24.422Z,10.30
2022-12-23T22:36:27.659Z,10.30
2022-12-23T22:40:30.573Z,10.30
2022-12-23T22:44:33.380Z,10.30
2022-12-23T22:48:37.527Z,10.30
2022-12-23T22:52:40.344Z,10.30
2022-12-23T22:56:43.350Z,10.30
2022-12-23T23:00:46.177Z,10.30
2022-12-23T23:04:50.373Z,10.30
2022-12-23T23:08:53.244Z,10.30
2022-12-23T23:12:56.000Z,10.30
2022-12-23T23:16:59.105Z,10.30
2022-12-23T23:21:03.251Z,10.30
2022-12-23T23:25:06.801Z,10.30
2022-12-23T23:29:09.713Z,10.30
2022-12-23T23:33:12.548Z,10.40
2022-12-23T23:37:16.618Z,10.40
2022-12-23T23:41:23.361Z,10.40
2022-12-23T23:45:27.429Z,10.40
2022-12-23T23:49:30.200Z,10.40
2022-12-23T23:53:34.398Z,10.40
2022-12-23T23:57:37.207Z,10.40
